ADDS METAR Data INFO
IDs: Format: Raw Decoded Include TAF

Data at: 2042 UTC 16 Dec 2017

KPSP 161953Z 34008KT 10SM OVC120 18/M08 A2972 RMK AO2 SLP063 T01831078
KPSP 161853Z 00000KT 10SM FEW120 16/M03 A2974 RMK AO2 SLP072 T01611028
KPSP 161753Z 22007KT 10SM OVC095 14/M02 A2977 RMK AO2 SLP082 T01391022 10139 20094 53005
KPSP 161653Z 23005KT 10SM FEW060 BKN075 BKN110 12/M03 A2977 RMK AO2 SLP080 T01221028
KPSP 161553Z 31006KT 10SM BKN150 12/M04 A2976 RMK AO2 SLP078 T01221044
KPSP 161453Z 00000KT 10SM BKN100 11/M02 A2976 RMK AO2 SLP077 T01061017 55011
KPSP 161353Z 00000KT 10SM CLR 12/M07 A2976 RMK AO2 SLP076 T01171067
KPSP 161253Z AUTO 33005KT 10SM CLR 12/M04 A2975 RMK AO2 SLP074 T01171039
KPSP 161153Z AUTO 00000KT 10SM CLR 13/M03 A2979 RMK AO2 SLP087 T01281028 10150 20106 58035
KPSP 161053Z AUTO 00000KT 10SM CLR 11/M02 A2983 RMK AO2 SLP101 T01111017
KPSP 160953Z AUTO 32004KT 10SM CLR 13/M06 A2986 RMK AO2 SLP112 T01331061
KPSP 160853Z AUTO 35003KT 10SM CLR 13/M06 A2990 RMK AO2 SLP123 T01281056 58029
KPSP 160753Z AUTO 00000KT 10SM CLR 12/M04 A2992 RMK AO2 SLP132 T01221039 402560117
KPSP 160653Z AUTO 33006KT 10SM CLR 13/M08 A2996 RMK AO2 SLP144 T01331083
KPSP 160553Z 33005KT 10SM CLR 15/M08 A2998 RMK AO2 SLP152 T01501078 10239 20139 58011
KPSP 160453Z 33007KT 10SM CLR 15/M08 A3000 RMK AO2 SLP157 T01501083
KPSP 160353Z 32004KT 10SM CLR 14/M07 A3001 RMK AO2 SLP161 T01441072
KPSP 160253Z 32004KT 10SM CLR 17/M04 A3002 RMK AO2 SLP164 T01671044 58005
KPSP 160153Z 00000KT 10SM CLR 18/M02 A3002 RMK AO2 SLP166 T01831017
KPSP 160053Z VRB03KT 10SM CLR 21/M05 A3002 RMK AO2 SLP166 T02111050
KPSP 152353Z VRB05KT 10SM CLR 24/M06 A3003 RMK AO2 SLP167 T02391061 10256 20211 56024
KPSP 152253Z 10005KT 10SM CLR 25/M08 A3005 RMK AO2 SLP175 T02501083
KPSP 152153Z VRB06KT 10SM CLR 25/M08 A3007 RMK AO2 SLP181 T02501083
KPSP 152053Z VRB04KT 10SM CLR 25/M11 A3010 RMK AO2 SLP191 T02501106 58040
KPSP 151953Z 11004KT 10SM CLR 24/M10 A3014 RMK AO2 SLP206 T02441100
KPSP 151853Z 00000KT 10SM CLR 23/M11 A3019 RMK AO2 SLP223 T02331106
KPSP 151753Z 00000KT 10SM CLR 21/M08 A3022 RMK AO2 SLP232 T02111083 10211 20128 53008
KPSP 151653Z 00000KT 10SM CLR 19/M10 A3021 RMK AO2 SLP229 T01941100
KPSP 151553Z 01003KT 10SM CLR 14/M06 A3020 RMK AO2 SLP225 T01441056
KPSP 151453Z 28003KT 10SM CLR 13/M09 A3020 RMK AO2 SLP225 T01331094 53008
KPSP 151353Z VRB05KT 10SM CLR 14/M09 A3019 RMK AO2 SLP223 T01441094
KPSP 151253Z AUTO 30004KT 10SM CLR 16/M11 A3017 RMK AO2 SLP214 T01561111
KPSP 151153Z AUTO 26008KT 10SM CLR 18/M11 A3017 RMK AO2 SLP215 T01781111 10233 20167 50001
KPSP 151053Z AUTO 26006KT 10SM CLR 17/M10 A3018 RMK AO2 SLP218 T01721100
KPSP 150953Z AUTO 32005KT 10SM CLR 21/M12 A3018 RMK AO2 SLP217 T02061117
KPSP 150853Z AUTO 31006KT 10SM CLR 22/M11 A3017 RMK AO2 SLP214 T02221106 51001